Decoded Metar for KCNB (CANBY/MYERS FLD in MN, USA) (IATA:CNB) | Meteo·Mobile Aviation Weather
aviador You're here:

KCNB Decoded Metar

CANBY/MYERS FLD in MN, USA
Report Time2019-10-19 22:02:00
UTC Time2019-10-19 22:08:22
Flight Rules vfr VFR
Wind310° at 09 kt
W.Decomp.*RWY 30: 8.9 kt HW 1.1 kt RCW
Visibility9999 m
Phenomena:N/A
Clouds:N/A
Expected CloudBase > 6,800 ft AGL from Temp-Dew spread
CeilingNone
Temp17°C (ISA +4)
Dew Point00°C (32% RH)
AAT11.8°C
QNH1006 hPa
Density Alt2,031 ft
Elevation1,194 ft
Report Wrong Elevation
Raw Report
KCNB 192202Z AUTO 31009KT 10SM CLR 17/00 A2970 RMK AO2=

Extra information for KCNB:More info

Metar Taf Metar & Taf Last 4 Metars F.Rules Stats Wind Profile Meteogram Temp Stats Airport Information Weather charts Add Link Nearby VenuesMetar ALERT Operation Metar Decoded Social comments

AIRNAV info for KCNB